Parkland Airport

CPL6 · 艾伯塔, 加拿大

罗盘
风向 的 风向 280° Parkland Airport 8/26
风向 到 风: 9 kt, 阵阵 16 kt, 3 beaufort

8 kt

3 kt
改变
0 1.000 2.000 3.000 4.000 5.000
没有云
METAR CZVL 022200Z AUTO 28009G16KT 9SM CLR M18/M23 A3007 RMK SLP255

METAR Parkland Airport - CPL6

Parkland Airport是,加拿大中的小机场。 该机场有一条跑道: 8/26. 该领域的国际民航组织标志是CPL6.

这份报告是针对2022年12月2日 15:00, 当地时间在Edmonton / Villeneuve Airport进行的。

机场观察

风向为280°,速度为9 kt。 已测得16 kt的阵风。

可见度为9 mi。

有没有云。 没有观察到天花板。

温度为-18 °C,阵风为-30 °C。 露点为-23 °C,相对湿度为65%。 海平面上的气压为30,07 inHg (QNH)。

白天

今天,太阳从08:30升起,在16:19降落。 这适用于Parkland Airport,世界夏令时可能有所不同。 当地时间与世界标准时间之间的时差为-7 小时。 当前,没有夏令时有效。

公司介绍

在这个机场,你可以找到飞行学校。 本场上唯一已知的公司是Edmonton Flying Club。

体会

到Vliegles.nl去找飞行课程,跳伞和其他飞行体验。 浏览页面,了解Parkland Airport附近所有可用的活动。 你也可以使用搜索功能来寻找你所在地附近的特定飞行课程、跳伞或其他飞行体验。

跑道

Id 标题 侧风 逆风 侧风 %
8/26 080°-260° 3-5 kt 8-15 kt 34 %

逆风成分最大的方向会被突出显示,并用于横风计算。 这并不一定意味着这个方向在使用。

乌云

- CLR 没有云

温度 & 天气

温度 -18 °C
露点 -23 °C
相对湿度 65%
风寒 -30 °C
Kp-index 2 (0-9)

评论

SLP255海平面压力为30,28 inHg (30,28 inHg)

白天

日出
08:31
中午
12:24
日落
16:18 (31m)

小工具

你想在你的网站上有一个关于Parkland Airport的当前航空天气(METAR)的小部件吗?

显示HTML代码

我们和第三方通过cookies跟踪您在我们网站上的互联网行为。如果你继续,我们认为你同意我们的饼干政策